Time;durP1;ratioP1;P1;durP2;ratioP2;P2;SDS_P1;SDS_P2;PMS_P1;PMS_P2;Temp;Humidity;BMP_temperature;BMP_pressure;BME280_temperature;BME280_humidity;BME280_pressure;Samples;Min_cycle;Max_cycle;Signal;HPM_P1;HPM_P2
2022/01/12 00:01:21;;;;;;;5.60;4.10;;;21.40;41.90;;;;;;5045340;28;43694;-63
2022/01/12 00:03:48;;;;;;;5.32;4.03;;;21.40;41.90;;;;;;5044006;28;43689;-64
2022/01/12 00:06:16;;;;;;;5.20;4.55;;;21.40;41.90;;;;;;5043605;28;43438;-64
2022/01/12 00:08:43;;;;;;;4.32;3.92;;;21.40;41.90;;;;;;5044216;28;43496;-63
2022/01/12 00:11:11;;;;;;;4.80;4.15;;;21.40;41.90;;;;;;5045115;28;45001;-64
2022/01/12 00:13:38;;;;;;;5.50;4.28;;;21.30;41.80;;;;;;5044614;28;44798;-64
2022/01/12 00:16:06;;;;;;;5.40;4.10;;;21.30;41.90;;;;;;5044833;28;43494;-63
2022/01/12 00:18:34;;;;;;;5.00;4.43;;;21.30;41.90;;;;;;5045337;28;43484;-63
2022/01/12 00:21:02;;;;;;;6.20;4.60;;;21.30;41.90;;;;;;5044763;28;43858;-63
2022/01/12 00:23:30;;;;;;;5.32;4.32;;;21.30;41.90;;;;;;5043618;28;43913;-64
2022/01/12 00:34:05;;;;;;;4.93;4.40;;;21.30;41.90;;;;;;5043576;28;43676;-63
2022/01/12 00:36:33;;;;;;;5.07;4.53;;;21.20;41.90;;;;;;5044522;28;43485;-63
2022/01/12 00:39:04;;;;;;;5.38;4.40;;;21.20;42.00;;;;;;5021966;28;43528;-64
2022/01/12 00:41:32;;;;;;;;;;;21.20;42.00;;;;;;5043186;28;44374;-64
2022/01/12 00:44:00;;;;;;;5.68;4.70;;;21.20;42.00;;;;;;5060346;28;44076;-63
2022/01/12 00:46:30;;;;;;;5.55;4.95;;;21.20;42.00;;;;;;5042906;28;43458;-64
2022/01/12 00:49:00;;;;;;;5.50;5.00;;;21.10;42.00;;;;;;5044855;28;43594;-63
2022/01/12 00:51:33;;;;;;;5.38;4.88;;;21.20;42.00;;;;;;5044215;28;43972;-64
2022/01/12 00:54:02;;;;;;;5.45;4.50;;;21.20;42.10;;;;;;5043090;28;43773;-64
2022/01/12 00:56:29;;;;;;;6.13;4.95;;;21.10;42.00;;;;;;5042948;28;43516;-64
2022/01/12 00:58:58;;;;;;;4.88;4.38;;;21.10;42.00;;;;;;5043585;28;43443;-64
2022/01/12 01:01:25;;;;;;;5.43;4.93;;;21.10;42.10;;;;;;5042793;28;44158;-64
2022/01/12 01:03:53;;;;;;;5.30;4.50;;;21.10;42.00;;;;;;5043299;28;43437;-63
2022/01/12 01:06:22;;;;;;;5.30;4.80;;;21.10;42.00;;;;;;5042804;28;43471;-64
2022/01/12 01:08:51;;;;;;;5.85;4.88;;;21.10;42.10;;;;;;5042995;28;43492;-64
2022/01/12 01:11:24;;;;;;;5.50;4.63;;;21.00;42.00;;;;;;5043749;28;44652;-64
2022/01/12 01:13:58;;;;;;;5.43;4.65;;;21.10;42.10;;;;;;5059848;28;44070;-64
2022/01/12 01:27:31;;;;;;;5.93;5.20;;;21.00;42.20;;;;;;5042694;28;43522;-64
2022/01/12 01:29:58;;;;;;;6.00;5.05;;;21.00;42.20;;;;;;5059682;28;43531;-64
2022/01/12 01:32:27;;;;;;;5.15;4.65;;;20.90;42.20;;;;;;5042334;28;43823;-63
2022/01/12 01:34:55;;;;;;;5.97;5.35;;;20.90;42.20;;;;;;5068018;28;43508;-63
2022/01/12 01:37:22;;;;;;;5.50;4.70;;;20.90;42.20;;;;;;5042553;28;43395;-63
2022/01/12 01:39:50;;;;;;;6.18;5.55;;;20.90;42.20;;;;;;5042769;28;43517;-64
2022/01/12 01:42:25;;;;;;;5.00;4.50;;;20.90;42.20;;;;;;5042452;28;44677;-63
2022/01/12 01:55:44;;;;;;;5.10;4.60;;;20.80;42.40;;;;;;5073308;28;44193;-63
2022/01/12 01:58:12;;;;;;;5.10;4.47;;;20.80;42.30;;;;;;5042521;28;43469;-64
2022/01/12 02:00:40;;;;;;;5.47;4.90;;;20.80;42.30;;;;;;5042652;28;43598;-64
2022/01/12 02:03:14;;;;;;;5.32;4.82;;;20.80;42.30;;;;;;5039457;28;43620;-64
2022/01/12 02:05:47;;;;;;;5.20;4.70;;;20.80;42.40;;;;;;5014422;28;43543;-64
2022/01/12 02:08:14;;;;;;;5.80;5.20;;;20.80;42.40;;;;;;5039437;28;43396;-64
2022/01/12 02:10:57;;;;;;;5.63;5.10;;;20.80;42.50;;;;;;5058903;28;43435;-64
2022/01/12 02:13:26;;;;;;;5.35;4.85;;;20.80;42.50;;;;;;5070577;28;43952;-64
2022/01/12 02:15:57;;;;;;;5.63;4.65;;;20.80;43.10;;;;;;5041692;28;43510;-64
2022/01/12 02:40:36;;;;;;;5.07;4.57;;;20.70;42.50;;;;;;5041685;28;43516;-64
2022/01/12 02:51:26;;;;;;;5.05;4.55;;;20.60;42.50;;;;;;5025270;28;43413;-64
2022/01/12 02:53:54;;;;;;;4.75;4.35;;;20.60;42.60;;;;;;5058588;28;43479;-63
2022/01/12 02:56:25;;;;;;;5.43;4.50;;;20.60;42.60;;;;;;5039050;28;43707;-63
2022/01/12 02:58:52;;;;;;;4.87;4.30;;;20.60;42.60;;;;;;5041739;28;43592;-63
2022/01/12 03:03:59;;;;;;;4.57;4.10;;;20.60;42.60;;;;;;5038875;28;43488;-63
2022/01/12 03:06:31;;;;;;;4.93;4.43;;;20.60;42.60;;;;;;5024492;28;45065;-63
2022/01/12 03:08:59;;;;;;;4.68;4.22;;;20.60;42.70;;;;;;5061712;28;43426;-64
2022/01/12 03:11:28;;;;;;;4.55;4.15;;;20.50;42.60;;;;;;5041006;28;43408;-64
2022/01/12 03:14:00;;;;;;;4.45;4.07;;;20.50;42.60;;;;;;5039148;28;43412;-64
2022/01/12 03:16:28;;;;;;;4.80;4.35;;;20.60;42.70;;;;;;5040713;28;43686;-63
2022/01/12 03:19:01;;;;;;;4.90;4.40;;;20.50;42.60;;;;;;5044812;28;43718;-64
2022/01/12 03:21:33;;;;;;;4.72;4.15;;;20.50;42.60;;;;;;5044423;28;43505;-63
2022/01/12 03:24:02;;;;;;;4.70;4.15;;;20.50;42.60;;;;;;5061727;28;43446;-64
2022/01/12 03:26:33;;;;;;;4.60;4.20;;;20.50;42.60;;;;;;5044492;28;43929;-64
2022/01/12 03:29:03;;;;;;;4.75;4.25;;;20.50;43.00;;;;;;5028012;28;45274;-64
2022/01/12 03:31:35;;;;;;;4.22;3.80;;;20.50;42.70;;;;;;5044349;28;43514;-64
2022/01/12 03:34:22;;;;;;;4.53;4.10;;;20.50;42.70;;;;;;5068127;28;43432;-64
2022/01/12 03:37:15;;;;;;;4.50;4.05;;;20.50;42.70;;;;;;5039615;28;44972;-64
2022/01/12 03:39:41;;;;;;;4.40;4.00;;;20.40;42.60;;;;;;5061175;28;43463;-63
2022/01/12 03:42:10;;;;;;;4.53;3.92;;;20.40;42.60;;;;;;5044212;28;43455;-64
2022/01/12 03:44:37;;;;;;;4.70;4.20;;;20.40;42.70;;;;;;5038267;28;43575;-64
2022/01/12 03:47:05;;;;;;;4.45;4.05;;;20.40;42.70;;;;;;5043962;28;44353;-63
2022/01/12 03:49:33;;;;;;;4.75;4.25;;;20.40;42.70;;;;;;5061211;28;43491;-64
2022/01/12 03:52:01;;;;;;;5.03;4.13;;;20.40;42.70;;;;;;5044069;28;43548;-64
2022/01/12 03:54:28;;;;;;;4.55;4.10;;;20.40;42.70;;;;;;5044413;28;43430;-64
2022/01/12 03:56:59;;;;;;;4.25;3.85;;;20.40;42.70;;;;;;5044923;28;43818;-64
2022/01/12 03:59:27;;;;;;;;;;;20.40;42.70;;;;;;5058664;28;43480;-64
2022/01/12 04:01:54;;;;;;;4.15;3.75;;;20.30;42.70;;;;;;5056336;28;43461;-64
2022/01/12 04:04:34;;;;;;;4.43;3.67;;;20.30;42.80;;;;;;5061180;28;43495;-63
2022/01/12 04:09:48;;;;;;;4.18;3.78;;;20.30;42.70;;;;;;5032958;28;44693;-63
2022/01/12 04:12:16;;;;;;;4.40;4.00;;;20.30;42.70;;;;;;5033098;28;43423;-64
2022/01/12 04:14:44;;;;;;;4.32;3.90;;;20.30;42.70;;;;;;5037333;28;43482;-64
2022/01/12 04:17:13;;;;;;;4.32;3.92;;;20.20;42.70;;;;;;5023247;28;44324;-63
2022/01/12 04:19:44;;;;;;;3.95;3.65;;;20.20;42.70;;;;;;5029703;28;43474;-64
2022/01/12 04:24:58;;;;;;;4.18;3.67;;;20.20;42.80;;;;;;5006247;28;43495;-63
2022/01/12 04:27:26;;;;;;;4.20;3.80;;;20.20;42.70;;;;;;5025966;28;44300;-64
2022/01/12 04:29:53;;;;;;;4.38;3.50;;;20.20;42.70;;;;;;5035479;28;43449;-63
2022/01/12 04:32:23;;;;;;;3.97;3.65;;;20.20;42.70;;;;;;5036359;28;44331;-63
2022/01/12 04:34:50;;;;;;;4.00;3.60;;;20.20;42.70;;;;;;5025219;28;43502;-64
2022/01/12 04:37:18;;;;;;;3.95;3.55;;;20.20;42.80;;;;;;5024787;28;43844;-64
2022/01/12 04:39:46;;;;;;;3.83;3.53;;;20.20;42.70;;;;;;5047477;28;43601;-64
2022/01/12 04:42:13;;;;;;;3.85;3.45;;;20.20;42.80;;;;;;5036435;28;43509;-64
2022/01/12 04:44:45;;;;;;;3.72;3.33;;;20.10;42.70;;;;;;5041457;28;43561;-63
2022/01/12 04:47:29;;;;;;;3.75;3.40;;;20.10;42.70;;;;;;5027765;28;44152;-63
2022/01/12 04:49:59;;;;;;;3.88;3.53;;;20.10;42.70;;;;;;5032957;28;43506;-64
2022/01/12 04:52:27;;;;;;;3.47;3.17;;;20.10;42.70;;;;;;5035361;28;43467;-63
2022/01/12 04:54:55;;;;;;;3.72;3.42;;;20.10;42.80;;;;;;5025292;28;43475;-64
2022/01/12 04:57:24;;;;;;;3.40;3.10;;;20.10;42.70;;;;;;5031853;28;43572;-63
2022/01/12 05:00:06;;;;;;;3.40;3.10;;;20.10;42.80;;;;;;5052863;28;43428;-63
2022/01/12 05:13:50;;;;;;;3.00;2.70;;;20.00;42.80;;;;;;5023335;28;43457;-64
2022/01/12 05:16:18;;;;;;;2.65;2.45;;;20.00;42.80;;;;;;5017631;28;43506;-63
2022/01/12 05:18:47;;;;;;;2.50;2.30;;;20.00;42.80;;;;;;5027576;28;43963;-63
2022/01/12 05:21:16;;;;;;;3.25;2.95;;;20.00;42.80;;;;;;5025032;28;43438;-64
2022/01/12 05:23:45;;;;;;;3.60;3.08;;;20.00;42.80;;;;;;5023682;28;43446;-64
2022/01/12 05:26:13;;;;;;;3.90;2.90;;;19.90;42.80;;;;;;5029797;28;43478;-63
2022/01/12 05:28:42;;;;;;;3.00;2.70;;;19.90;42.80;;;;;;5013800;28;44182;-64
2022/01/12 05:31:11;;;;;;;2.75;2.55;;;19.90;42.80;;;;;;5008531;28;43573;-63
2022/01/12 05:33:46;;;;;;;3.03;2.70;;;19.90;42.80;;;;;;5027808;28;43479;-64
2022/01/12 05:36:17;;;;;;;2.85;2.55;;;19.90;42.80;;;;;;5034074;28;43519;-64
2022/01/12 05:38:46;;;;;;;3.72;2.70;;;19.90;42.80;;;;;;5028860;28;44061;-63
2022/01/12 05:41:14;;;;;;;2.75;2.50;;;19.90;42.90;;;;;;5023886;28;43443;-64
2022/01/12 05:43:44;;;;;;;2.67;2.42;;;19.90;42.80;;;;;;5028053;28;43492;-64
2022/01/12 05:46:14;;;;;;;2.58;2.30;;;19.80;42.80;;;;;;5036142;28;43518;-63
2022/01/12 05:51:36;;;;;;;2.63;2.33;;;19.90;43.10;;;;;;5025384;28;43458;-64
2022/01/12 05:54:03;;;;;;;2.50;2.30;;;19.80;42.90;;;;;;5032237;28;43491;-64
2022/01/12 05:56:31;;;;;;;2.40;2.20;;;19.80;43.00;;;;;;5039004;28;43535;-63
2022/01/12 05:58:59;;;;;;;3.42;2.50;;;19.80;42.90;;;;;;5007597;28;45006;-63
2022/01/12 06:01:27;;;;;;;2.75;2.25;;;19.80;42.90;;;;;;5026235;28;43454;-64
2022/01/12 06:03:55;;;;;;;2.97;2.30;;;19.70;42.90;;;;;;5034039;28;43507;-64
2022/01/12 06:06:23;;;;;;;3.92;2.72;;;19.70;42.90;;;;;;5027171;28;43586;-63
2022/01/12 06:08:52;;;;;;;2.50;2.30;;;19.80;43.00;;;;;;5025663;28;43624;-64
2022/01/12 06:11:19;;;;;;;3.75;2.60;;;19.70;42.90;;;;;;5027069;28;43495;-63
2022/01/12 06:13:50;;;;;;;2.92;2.20;;;19.70;42.90;;;;;;5013223;28;43458;-64
2022/01/12 06:16:18;;;;;;;2.55;2.22;;;19.70;42.90;;;;;;5039722;28;43454;-64
2022/01/12 06:18:46;;;;;;;2.95;2.10;;;19.70;42.90;;;;;;5042194;28;43854;-63
2022/01/12 06:21:14;;;;;;;2.35;2.15;;;19.70;42.90;;;;;;5031121;28;43871;-64
2022/01/12 06:23:41;;;;;;;2.80;2.28;;;19.70;42.90;;;;;;5036958;28;43432;-64
2022/01/12 06:26:11;;;;;;;2.30;2.10;;;19.70;42.90;;;;;;5044187;28;43651;-64
2022/01/12 06:28:41;;;;;;;2.65;1.88;;;19.70;42.90;;;;;;5041875;28;43654;-64
2022/01/12 06:31:11;;;;;;;3.20;2.35;;;19.70;42.90;;;;;;5031733;28;43448;-64
2022/01/12 06:33:45;;;;;;;2.80;1.95;;;19.70;43.00;;;;;;5026152;28;43443;-64
2022/01/12 06:36:17;;;;;;;4.28;2.30;;;19.70;42.90;;;;;;5024335;28;43506;-64
2022/01/12 06:38:46;;;;;;;3.50;2.20;;;19.70;43.60;;;;;;5021683;28;43714;-63
2022/01/12 06:41:14;;;;;;;2.35;1.80;;;19.70;42.90;;;;;;5018085;28;43491;-64
2022/01/12 06:43:44;;;;;;;2.90;2.30;;;19.70;43.00;;;;;;5043904;28;43510;-64
2022/01/12 06:46:19;;;;;;;4.70;2.35;;;19.60;43.00;;;;;;5009001;28;43646;-64
2022/01/12 06:48:48;;;;;;;2.55;2.00;;;19.70;43.10;;;;;;5016798;28;44181;-64
2022/01/12 06:51:15;;;;;;;2.80;1.85;;;19.60;43.00;;;;;;5037151;28;43511;-64
2022/01/12 06:53:43;;;;;;;2.78;2.13;;;19.60;43.10;;;;;;5029905;28;43478;-64
2022/01/12 06:56:15;;;;;;;2.63;1.90;;;19.60;43.10;;;;;;5030271;28;43618;-64
2022/01/12 06:58:47;;;;;;;2.17;1.77;;;19.70;43.10;;;;;;5017981;28;44815;-64
2022/01/12 07:01:16;;;;;;;2.08;1.95;;;19.70;43.20;;;;;;5041133;28;43515;-64
2022/01/12 07:03:46;;;;;;;2.10;1.88;;;19.70;43.20;;;;;;5029625;28;43598;-64
2022/01/12 07:06:13;;;;;;;2.55;1.98;;;19.70;43.20;;;;;;5024598;28;43600;-64
2022/01/12 07:08:42;;;;;;;2.22;1.70;;;19.70;43.10;;;;;;5029132;28;43750;-64
2022/01/12 07:11:18;;;;;;;3.10;2.00;;;19.70;43.20;;;;;;5043808;28;43440;-64
2022/01/12 07:13:49;;;;;;;2.03;1.70;;;19.70;43.10;;;;;;5007980;28;43493;-65
2022/01/12 07:16:16;;;;;;;2.58;1.83;;;19.70;43.20;;;;;;5001512;28;43658;-64
2022/01/12 07:18:44;;;;;;;1.83;1.70;;;19.70;43.40;;;;;;5024749;28;44209;-65
2022/01/12 07:21:11;;;;;;;2.25;1.83;;;19.70;43.00;;;;;;5025280;28;43439;-64
2022/01/12 07:23:39;;;;;;;1.77;1.58;;;19.70;43.00;;;;;;5026083;28;43438;-64
2022/01/12 07:26:08;;;;;;;2.65;1.80;;;19.70;43.00;;;;;;5021433;28;43630;-64
2022/01/12 07:28:35;;;;;;;2.55;1.80;;;19.70;43.00;;;;;;5041237;28;44013;-64
2022/01/12 07:31:03;;;;;;;3.05;1.83;;;19.80;43.00;;;;;;5030112;28;43421;-64
2022/01/12 07:33:30;;;;;;;2.25;1.80;;;19.80;43.00;;;;;;5029443;28;43471;-64
2022/01/12 07:35:58;;;;;;;2.72;1.85;;;19.80;42.90;;;;;;5034270;28;43569;-65
2022/01/12 07:38:25;;;;;;;2.05;1.83;;;19.80;43.00;;;;;;5034341;28;43808;-64
2022/01/12 07:40:53;;;;;;;1.98;1.77;;;19.80;43.00;;;;;;5026397;28;43789;-64
2022/01/12 07:43:20;;;;;;;2.47;1.75;;;19.80;42.90;;;;;;5029811;28;43443;-64
2022/01/12 07:45:48;;;;;;;2.67;1.70;;;19.80;42.90;;;;;;5033485;28;43503;-64
2022/01/12 07:48:16;;;;;;;3.00;1.80;;;19.80;43.00;;;;;;5033723;28;43765;-64
2022/01/12 07:50:44;;;;;;;2.08;1.50;;;19.80;42.90;;;;;;5027474;28;43441;-64
2022/01/12 07:53:12;;;;;;;2.13;1.65;;;19.80;43.00;;;;;;5030565;28;43605;-64
2022/01/12 07:55:39;;;;;;;2.20;1.70;;;19.90;43.00;;;;;;5029905;28;43526;-65
2022/01/12 07:58:07;;;;;;;1.95;1.40;;;19.80;43.00;;;;;;5016667;28;43564;-64
2022/01/12 08:00:35;;;;;;;1.85;1.60;;;19.80;43.00;;;;;;5029810;28;43708;-64
2022/01/12 08:03:03;;;;;;;1.85;1.33;;;19.90;43.00;;;;;;5031444;28;43452;-64
2022/01/12 08:05:31;;;;;;;2.40;1.75;;;19.90;43.00;;;;;;5031235;28;43614;-64
2022/01/12 08:07:59;;;;;;;2.88;1.50;;;19.90;43.00;;;;;;5025906;28;43794;-64
2022/01/12 08:10:26;;;;;;;3.13;1.75;;;19.90;43.00;;;;;;5053440;27;43465;-64
2022/01/12 08:12:54;;;;;;;2.00;1.55;;;19.90;43.10;;;;;;5048690;28;43566;-64
2022/01/12 08:15:21;;;;;;;3.30;1.70;;;19.90;43.20;;;;;;5049587;28;43484;-64
2022/01/12 08:17:49;;;;;;;2.65;1.58;;;19.90;43.20;;;;;;5048600;28;44201;-64
2022/01/12 08:20:21;;;;;;;2.80;1.73;;;19.90;43.20;;;;;;5049335;28;44811;-64
2022/01/12 08:22:49;;;;;;;2.78;1.42;;;20.00;43.20;;;;;;5051552;28;43478;-64
2022/01/12 08:25:16;;;;;;;1.92;1.55;;;20.00;43.20;;;;;;5048530;28;43480;-65
2022/01/12 08:27:45;;;;;;;2.53;1.52;;;20.00;43.20;;;;;;5050865;28;44089;-64
2022/01/12 08:30:17;;;;;;;2.50;1.60;;;20.00;43.10;;;;;;5052820;28;43491;-62
2022/01/12 08:32:51;;;;;;;3.13;2.13;;;20.00;43.20;;;;;;5060883;28;43472;-64
2022/01/12 08:35:20;;;;;;;3.00;2.20;;;20.10;43.30;;;;;;5084042;27;43594;-64
2022/01/12 08:37:48;;;;;;;3.00;1.98;;;20.00;43.20;;;;;;5046298;28;43830;-64
2022/01/12 08:40:17;;;;;;;2.05;1.75;;;20.00;43.30;;;;;;5047723;28;43779;-63
2022/01/12 08:42:46;;;;;;;2.20;1.55;;;20.10;43.40;;;;;;5052153;28;43507;-65
2022/01/12 08:45:16;;;;;;;2.78;1.60;;;20.10;43.40;;;;;;5054141;28;43530;-63
2022/01/12 08:47:45;;;;;;;3.17;1.90;;;20.20;43.40;;;;;;5054180;28;43949;-67
2022/01/12 08:50:13;;;;;;;2.75;1.67;;;20.30;43.20;;;;;;5055223;28;43455;-65
2022/01/12 08:52:46;;;;;;;2.47;1.70;;;20.40;43.40;;;;;;5052515;28;43481;-64
2022/01/12 08:55:16;;;;;;;1.60;1.50;;;20.50;43.10;;;;;;5052869;28;43504;-63
2022/01/12 08:57:43;;;;;;;2.67;1.40;;;20.70;43.00;;;;;;5047837;28;43856;-64
2022/01/12 09:00:12;;;;;;;2.50;1.58;;;20.80;42.90;;;;;;5042888;28;43476;-64
2022/01/12 09:02:39;;;;;;;2.83;1.70;;;20.90;42.60;;;;;;5050690;28;43500;-65
2022/01/12 09:05:08;;;;;;;1.65;1.48;;;21.00;42.40;;;;;;5050273;28;43483;-63
2022/01/12 09:07:36;;;;;;;1.90;1.30;;;21.20;42.30;;;;;;5048870;28;43926;-64
2022/01/12 09:10:04;;;;;;;1.52;1.30;;;21.20;42.10;;;;;;5049526;28;43956;-64
2022/01/12 09:12:32;;;;;;;1.95;1.20;;;21.30;42.00;;;;;;5053584;28;43532;-64
2022/01/12 09:15:00;;;;;;;3.03;1.40;;;21.40;41.90;;;;;;5089208;27;43655;-65
2022/01/12 09:17:27;;;;;;;2.22;1.35;;;21.50;42.00;;;;;;5046558;28;44175;-64
2022/01/12 09:19:58;;;;;;;;;;;21.60;42.00;;;;;;5048476;28;43958;-64
2022/01/12 09:22:26;;;;;;;1.58;1.10;;;21.60;41.90;;;;;;5051875;28;43466;-66
2022/01/12 09:24:54;;;;;;;1.58;1.15;;;21.70;42.00;;;;;;5085340;27;43475;-63
2022/01/12 09:32:43;;;;;;;5.53;1.33;;;21.80;41.80;;;;;;5046334;28;43480;-64
2022/01/12 09:35:17;;;;;;;1.65;1.00;;;21.90;42.00;;;;;;5047983;28;43429;-61
2022/01/12 09:37:45;;;;;;;1.23;1.13;;;22.00;42.10;;;;;;5048317;28;43475;-63
2022/01/12 09:40:13;;;;;;;1.20;0.82;;;22.00;42.00;;;;;;5049101;28;43754;-62
2022/01/12 09:42:46;;;;;;;1.55;1.27;;;22.10;42.00;;;;;;5049030;28;43873;-62
2022/01/12 09:45:17;;;;;;;2.35;1.10;;;22.10;42.00;;;;;;5052146;28;43563;-64
2022/01/12 09:47:47;;;;;;;1.38;1.10;;;22.20;41.90;;;;;;5048672;28;43420;-64
2022/01/12 09:50:18;;;;;;;2.67;1.10;;;22.20;41.80;;;;;;5053141;28;43781;-64
2022/01/12 09:52:45;;;;;;;1.27;1.00;;;22.30;41.90;;;;;;5049567;28;43420;-64
2022/01/12 09:55:13;;;;;;;2.15;0.90;;;22.30;41.90;;;;;;5067409;28;43493;-65
2022/01/12 09:57:40;;;;;;;1.52;0.90;;;22.30;41.90;;;;;;5048483;28;43509;-62
2022/01/12 10:00:09;;;;;;;1.95;1.20;;;22.30;41.90;;;;;;5047581;28;43770;-63
2022/01/12 10:02:42;;;;;;;1.35;1.20;;;22.40;41.90;;;;;;5048738;28;43502;-63
2022/01/12 10:05:11;;;;;;;1.45;1.20;;;22.40;41.70;;;;;;5048076;28;44133;-63
2022/01/12 10:07:38;;;;;;;5.05;1.20;;;22.50;41.70;;;;;;5047478;28;43436;-64
2022/01/12 10:10:14;;;;;;;2.58;1.20;;;22.50;41.70;;;;;;5048717;28;44041;-62
2022/01/12 10:12:55;;;;;;;1.75;1.40;;;22.50;41.60;;;;;;5049585;28;44046;-61
2022/01/12 10:15:27;;;;;;;1.58;1.30;;;22.60;41.60;;;;;;5050856;28;43518;-61
2022/01/12 10:18:01;;;;;;;1.58;1.35;;;22.60;41.50;;;;;;5045555;28;43514;-61
2022/01/12 10:20:30;;;;;;;1.20;1.10;;;22.70;41.50;;;;;;5046420;28;43826;-61
2022/01/12 10:22:58;;;;;;;1.38;1.05;;;22.70;41.40;;;;;;5050108;28;43792;-61
2022/01/12 10:25:28;;;;;;;1.88;1.25;;;22.80;41.30;;;;;;5049981;28;43926;-61
2022/01/12 10:27:57;;;;;;;1.00;1.00;;;22.90;41.20;;;;;;5045751;28;43653;-60
2022/01/12 10:30:27;;;;;;;0.98;0.90;;;22.90;41.20;;;;;;5048075;28;44716;-60
2022/01/12 10:33:09;;;;;;;1.75;1.05;;;23.00;40.80;;;;;;5045923;28;43537;-60
2022/01/12 10:35:40;;;;;;;2.15;1.17;;;23.10;40.90;;;;;;5050229;28;43430;-60
2022/01/12 10:38:13;;;;;;;1.00;1.00;;;23.20;40.90;;;;;;5050603;28;43574;-60
2022/01/12 10:40:54;;;;;;;1.00;0.90;;;23.20;40.70;;;;;;5048036;28;44662;-60
2022/01/12 10:43:26;;;;;;;1.10;1.00;;;23.30;40.70;;;;;;5052975;28;43426;-61
2022/01/12 10:45:54;;;;;;;1.25;1.15;;;23.30;40.60;;;;;;5047796;28;43572;-60
2022/01/12 10:48:25;;;;;;;1.30;1.02;;;23.30;40.50;;;;;;5053309;28;43701;-60
2022/01/12 10:50:58;;;;;;;1.40;1.17;;;23.40;40.50;;;;;;5049594;28;44010;-61
2022/01/12 10:53:28;;;;;;;1.33;1.23;;;23.40;40.40;;;;;;5047224;28;43590;-60
2022/01/12 10:56:09;;;;;;;2.15;1.05;;;23.40;40.40;;;;;;5048663;28;43475;-61
2022/01/12 10:58:39;;;;;;;3.05;1.73;;;23.40;40.30;;;;;;5047441;28;43628;-60
2022/01/12 11:01:08;;;;;;;3.00;1.45;;;23.40;40.40;;;;;;5046529;28;44082;-61
2022/01/12 11:03:38;;;;;;;2.33;1.40;;;23.40;40.40;;;;;;5044747;28;44046;-61
2022/01/12 11:06:10;;;;;;;2.13;1.40;;;23.40;40.40;;;;;;5044255;28;43538;-61
2022/01/12 11:08:47;;;;;;;2.20;1.30;;;23.40;40.50;;;;;;5043901;28;43586;-62
2022/01/12 11:11:21;;;;;;;2.08;1.55;;;23.40;40.60;;;;;;5044264;28;43815;-61
2022/01/12 11:13:56;;;;;;;2.30;1.70;;;23.50;40.70;;;;;;5076276;27;43390;-61
2022/01/12 11:16:28;;;;;;;2.03;1.35;;;23.50;40.70;;;;;;5044166;28;43486;-61
2022/01/12 11:18:58;;;;;;;3.00;1.80;;;23.50;40.70;;;;;;5041142;28;43520;-61
2022/01/12 11:21:36;;;;;;;5.10;2.17;;;23.50;41.40;;;;;;5039791;28;45697;-61
2022/01/12 11:24:05;;;;;;;3.40;1.90;;;23.50;40.70;;;;;;5045056;28;43542;-61
2022/01/12 11:26:33;;;;;;;5.00;2.10;;;23.50;40.80;;;;;;5049312;28;43523;-61
2022/01/12 11:29:04;;;;;;;4.22;2.10;;;23.50;40.80;;;;;;5051833;28;43590;-61
2022/01/12 11:31:34;;;;;;;;;;;23.50;40.80;;;;;;5050195;28;44054;-62
2022/01/12 11:34:01;;;;;;;5.15;2.20;;;23.50;41.50;;;;;;5038679;28;43475;-62
2022/01/12 11:36:40;;;;;;;3.22;2.22;;;23.50;40.90;;;;;;5050480;28;43435;-61
2022/01/12 11:39:10;;;;;;;5.40;2.58;;;23.50;40.90;;;;;;5043232;28;43456;-61
2022/01/12 11:41:40;;;;;;;4.60;2.33;;;23.50;40.90;;;;;;5045366;28;44734;-61
2022/01/12 11:44:22;;;;;;;4.20;2.40;;;23.50;41.10;;;;;;5045742;28;43866;-61
2022/01/12 11:46:53;;;;;;;4.80;2.53;;;23.50;41.10;;;;;;5045511;28;43484;-61
2022/01/12 11:49:37;;;;;;;5.40;2.67;;;23.40;41.10;;;;;;5044929;28;43478;-61
2022/01/12 11:52:22;;;;;;;5.25;2.80;;;23.40;41.00;;;;;;5044642;28;44812;-61
2022/01/12 11:54:53;;;;;;;5.20;2.60;;;23.40;41.00;;;;;;5048053;28;43491;-61
2022/01/12 11:57:31;;;;;;;;;;;23.40;41.00;;;;;;5046793;28;43464;-61
2022/01/12 12:00:12;;;;;;;5.22;2.42;;;23.40;41.00;;;;;;5048543;28;43561;-61
2022/01/12 12:02:49;;;;;;;3.53;2.30;;;23.40;41.00;;;;;;5045938;28;43859;-60
2022/01/12 12:05:19;;;;;;;6.40;2.40;;;23.40;41.00;;;;;;5047145;28;43881;-61
2022/01/12 12:07:52;;;;;;;4.43;2.30;;;23.40;41.00;;;;;;5047618;28;43369;-60
2022/01/12 12:10:27;;;;;;;4.93;2.45;;;23.50;41.10;;;;;;5048921;28;43478;-61
2022/01/12 12:12:57;;;;;;;4.95;2.28;;;23.40;41.00;;;;;;5049334;28;44237;-61
2022/01/12 12:15:25;;;;;;;4.47;2.30;;;23.40;41.00;;;;;;5048343;28;43448;-60
2022/01/12 12:17:57;;;;;;;4.17;2.27;;;23.40;41.00;;;;;;5048830;28;43800;-62
2022/01/12 12:20:25;;;;;;;3.17;2.28;;;23.40;41.10;;;;;;5043943;28;43446;-61
2022/01/12 12:22:55;;;;;;;4.57;2.13;;;23.40;41.10;;;;;;5044858;28;44975;-61
2022/01/12 12:25:31;;;;;;;3.70;2.15;;;23.40;41.00;;;;;;5047358;28;43959;-61
2022/01/12 12:28:03;;;;;;;3.30;2.05;;;23.40;41.00;;;;;;5046494;28;43455;-61
2022/01/12 12:30:33;;;;;;;2.92;2.33;;;23.40;41.00;;;;;;5047212;28;43435;-62
2022/01/12 12:33:07;;;;;;;4.10;1.80;;;23.40;41.10;;;;;;5045104;28;44963;-61
2022/01/12 12:35:36;;;;;;;4.03;2.00;;;23.40;41.00;;;;;;5050195;28;43437;-61
2022/01/12 12:38:12;;;;;;;4.50;2.17;;;23.40;41.00;;;;;;5051320;28;43451;-61
2022/01/12 12:40:48;;;;;;;4.20;2.20;;;23.40;41.00;;;;;;5046585;28;43480;-61
2022/01/12 12:43:23;;;;;;;5.18;2.00;;;23.30;41.00;;;;;;5055655;28;44981;-61
2022/01/12 12:46:05;;;;;;;3.47;1.98;;;23.30;41.00;;;;;;5053758;28;43550;-61
2022/01/12 12:48:36;;;;;;;3.88;2.10;;;23.30;41.00;;;;;;5052626;28;43542;-62
2022/01/12 12:51:08;;;;;;;2.30;1.77;;;23.30;41.20;;;;;;5051913;28;43639;-62
2022/01/12 12:53:39;;;;;;;3.30;1.80;;;23.30;41.30;;;;;;5053220;28;44074;-61
2022/01/12 12:56:14;;;;;;;4.47;2.00;;;23.30;41.20;;;;;;5047139;28;43700;-62
2022/01/12 12:58:52;;;;;;;3.40;1.92;;;23.20;41.00;;;;;;5047731;28;43475;-61
2022/01/12 13:01:21;;;;;;;2.92;1.80;;;23.20;41.10;;;;;;5052215;28;43498;-62
2022/01/12 13:03:52;;;;;;;4.05;1.83;;;23.20;41.30;;;;;;5049643;28;44994;-61
2022/01/12 13:06:26;;;;;;;3.58;1.90;;;23.20;41.30;;;;;;5049080;28;43469;-61
2022/01/12 13:09:03;;;;;;;2.47;1.77;;;23.20;41.30;;;;;;5053182;28;43573;-61
2022/01/12 13:11:34;;;;;;;2.88;1.90;;;23.20;41.40;;;;;;5050441;28;43625;-63
2022/01/12 13:14:07;;;;;;;2.67;2.03;;;23.20;41.30;;;;;;5052935;28;44038;-61
2022/01/12 13:16:35;;;;;;;3.35;2.00;;;23.20;41.30;;;;;;5050339;28;43416;-61
2022/01/12 13:19:06;;;;;;;2.75;1.98;;;23.20;41.30;;;;;;5050721;28;43458;-62
2022/01/12 13:21:34;;;;;;;;;;;23.20;41.30;;;;;;5043992;28;43570;-61
2022/01/12 13:24:02;;;;;;;2.25;1.65;;;23.30;41.20;;;;;;5047512;28;44991;-61
2022/01/12 13:26:32;;;;;;;2.22;1.67;;;23.30;41.30;;;;;;5042480;28;43506;-61
2022/01/12 13:29:03;;;;;;;3.03;1.90;;;23.30;41.30;;;;;;5044464;28;43416;-61
2022/01/12 13:31:31;;;;;;;3.38;2.10;;;23.30;41.30;;;;;;5042247;28;43397;-61
2022/01/12 13:34:01;;;;;;;3.13;1.77;;;23.30;41.20;;;;;;5043741;28;43973;-61
2022/01/12 13:36:31;;;;;;;2.47;1.85;;;23.30;41.10;;;;;;5043063;28;43451;-61
2022/01/12 13:39:05;;;;;;;2.28;1.70;;;23.30;41.00;;;;;;5043072;28;43431;-62
2022/01/12 13:41:35;;;;;;;1.92;1.50;;;23.30;41.00;;;;;;5043058;28;43553;-61
2022/01/12 13:44:12;;;;;;;1.73;1.63;;;23.30;41.00;;;;;;5046298;28;44703;-61
2022/01/12 13:47:03;;;;;;;3.05;1.85;;;23.30;41.30;;;;;;5044133;28;43535;-61
2022/01/12 13:49:31;;;;;;;2.63;1.70;;;23.30;41.20;;;;;;5047146;28;43450;-63
2022/01/12 13:52:03;;;;;;;3.05;1.80;;;23.30;41.30;;;;;;5046755;28;43590;-62
2022/01/12 13:54:40;;;;;;;2.53;1.80;;;23.30;41.40;;;;;;5046739;28;44028;-61
2022/01/12 13:57:11;;;;;;;2.38;1.75;;;23.30;41.30;;;;;;5043128;28;44221;-61
2022/01/12 13:59:49;;;;;;;2.97;1.90;;;23.30;41.30;;;;;;5046602;28;43478;-61
2022/01/12 14:02:19;;;;;;;3.25;1.58;;;23.40;41.30;;;;;;5046985;28;43485;-61
2022/01/12 14:05:03;;;;;;;3.53;1.73;;;23.30;41.30;;;;;;5049742;28;44659;-61
2022/01/12 14:07:35;;;;;;;2.40;1.63;;;23.30;41.40;;;;;;5046077;28;43966;-62
2022/01/12 14:10:06;;;;;;;2.20;1.63;;;23.30;41.40;;;;;;5048072;28;43485;-61
2022/01/12 14:12:33;;;;;;;3.28;1.60;;;23.40;41.20;;;;;;5050408;28;43493;-61
2022/01/12 14:15:05;;;;;;;3.45;1.70;;;23.40;41.10;;;;;;5048678;28;44991;-61
2022/01/12 14:17:39;;;;;;;5.45;1.80;;;23.40;41.10;;;;;;5048823;28;43729;-61
2022/01/12 14:20:12;;;;;;;7.13;1.70;;;23.40;41.30;;;;;;5047064;28;43476;-61
2022/01/12 14:22:46;;;;;;;4.32;1.85;;;23.30;41.20;;;;;;5045911;28;43419;-61
2022/01/12 14:25:20;;;;;;;3.58;1.70;;;23.30;41.60;;;;;;5046505;28;43800;-62
2022/01/12 14:27:53;;;;;;;3.40;1.83;;;23.30;41.00;;;;;;5044529;28;43538;-61
2022/01/12 14:30:21;;;;;;;2.00;1.65;;;23.30;41.00;;;;;;5046879;28;43483;-61
2022/01/12 14:32:50;;;;;;;3.20;1.50;;;23.30;41.20;;;;;;5048497;28;43507;-61